sensor_id;sensor_type;location;lat;lon;timestamp;temperature;humidity
54898;DHT22;40800;52.704;6.398;2023-04-24T00:02:07;11.40;99.90
54898;DHT22;40800;52.704;6.398;2023-04-24T00:04:36;11.30;99.90
54898;DHT22;40800;52.704;6.398;2023-04-24T00:07:06;11.10;99.90
54898;DHT22;40800;52.704;6.398;2023-04-24T00:09:32;11.00;99.90
54898;DHT22;40800;52.704;6.398;2023-04-24T00:11:58;10.70;99.90
54898;DHT22;40800;52.704;6.398;2023-04-24T00:14:24;11.00;99.90
54898;DHT22;40800;52.704;6.398;2023-04-24T00:16:49;10.50;99.90
54898;DHT22;40800;52.704;6.398;2023-04-24T00:19:15;10.50;99.90
54898;DHT22;40800;52.704;6.398;2023-04-24T00:21:41;10.40;99.90
54898;DHT22;40800;52.704;6.398;2023-04-24T00:24:07;11.10;99.90
54898;DHT22;40800;52.704;6.398;2023-04-24T00:26:34;11.00;99.90
54898;DHT22;40800;52.704;6.398;2023-04-24T00:29:00;10.40;99.90
54898;DHT22;40800;52.704;6.398;2023-04-24T00:31:25;10.90;99.90
54898;DHT22;40800;52.704;6.398;2023-04-24T00:33:51;10.40;99.90
54898;DHT22;40800;52.704;6.398;2023-04-24T00:36:16;10.80;99.90
54898;DHT22;40800;52.704;6.398;2023-04-24T00:38:44;10.40;99.90
54898;DHT22;40800;52.704;6.398;2023-04-24T00:41:10;11.30;99.90
54898;DHT22;40800;52.704;6.398;2023-04-24T00:43:35;10.80;99.90
54898;DHT22;40800;52.704;6.398;2023-04-24T00:46:01;11.30;99.90
54898;DHT22;40800;52.704;6.398;2023-04-24T00:48:27;10.80;99.90
54898;DHT22;40800;52.704;6.398;2023-04-24T00:50:53;10.60;99.90
54898;DHT22;40800;52.704;6.398;2023-04-24T00:53:19;10.50;99.90
54898;DHT22;40800;52.704;6.398;2023-04-24T00:55:45;10.50;99.90
54898;DHT22;40800;52.704;6.398;2023-04-24T00:58:12;10.50;99.90
54898;DHT22;40800;52.704;6.398;2023-04-24T01:00:38;11.50;99.90
54898;DHT22;40800;52.704;6.398;2023-04-24T01:03:04;11.10;99.90
54898;DHT22;40800;52.704;6.398;2023-04-24T01:05:31;11.50;99.90
54898;DHT22;40800;52.704;6.398;2023-04-24T01:07:57;10.70;99.90
54898;DHT22;40800;52.704;6.398;2023-04-24T01:10:24;11.40;99.90
54898;DHT22;40800;52.704;6.398;2023-04-24T01:12:52;10.50;99.90
54898;DHT22;40800;52.704;6.398;2023-04-24T01:15:18;10.70;99.90
54898;DHT22;40800;52.704;6.398;2023-04-24T01:17:43;10.90;99.90
54898;DHT22;40800;52.704;6.398;2023-04-24T01:20:09;10.50;99.90
54898;DHT22;40800;52.704;6.398;2023-04-24T01:22:36;10.30;99.90
54898;DHT22;40800;52.704;6.398;2023-04-24T01:25:02;10.50;99.90
54898;DHT22;40800;52.704;6.398;2023-04-24T01:27:28;10.60;99.90
54898;DHT22;40800;52.704;6.398;2023-04-24T01:29:54;10.20;99.90
54898;DHT22;40800;52.704;6.398;2023-04-24T01:32:20;10.60;99.90
54898;DHT22;40800;52.704;6.398;2023-04-24T01:34:46;10.90;99.90
54898;DHT22;40800;52.704;6.398;2023-04-24T01:37:12;10.30;99.90
54898;DHT22;40800;52.704;6.398;2023-04-24T01:39:38;10.20;99.90
54898;DHT22;40800;52.704;6.398;2023-04-24T01:42:04;10.10;99.90
54898;DHT22;40800;52.704;6.398;2023-04-24T01:44:30;10.90;99.90
54898;DHT22;40800;52.704;6.398;2023-04-24T01:46:56;10.00;99.90
54898;DHT22;40800;52.704;6.398;2023-04-24T01:49:21;10.30;99.90
54898;DHT22;40800;52.704;6.398;2023-04-24T01:51:47;10.40;99.90
54898;DHT22;40800;52.704;6.398;2023-04-24T01:54:13;10.80;99.90
54898;DHT22;40800;52.704;6.398;2023-04-24T01:56:42;10.00;99.90
54898;DHT22;40800;52.704;6.398;2023-04-24T01:59:10;10.00;99.90
54898;DHT22;40800;52.704;6.398;2023-04-24T02:01:37;10.60;99.90
54898;DHT22;40800;52.704;6.398;2023-04-24T02:04:04;10.80;99.90
54898;DHT22;40800;52.704;6.398;2023-04-24T02:06:30;10.20;99.90
54898;DHT22;40800;52.704;6.398;2023-04-24T02:08:57;10.80;99.90
54898;DHT22;40800;52.704;6.398;2023-04-24T02:11:23;9.80;99.90
54898;DHT22;40800;52.704;6.398;2023-04-24T02:13:48;10.30;99.90
54898;DHT22;40800;52.704;6.398;2023-04-24T02:16:15;9.90;99.90
54898;DHT22;40800;52.704;6.398;2023-04-24T02:18:40;10.60;99.90
54898;DHT22;40800;52.704;6.398;2023-04-24T02:21:06;10.80;99.90
54898;DHT22;40800;52.704;6.398;2023-04-24T02:23:31;9.90;99.90
54898;DHT22;40800;52.704;6.398;2023-04-24T02:25:57;10.80;99.90
54898;DHT22;40800;52.704;6.398;2023-04-24T02:28:22;10.50;99.90
54898;DHT22;40800;52.704;6.398;2023-04-24T02:30:48;10.10;99.90
54898;DHT22;40800;52.704;6.398;2023-04-24T02:33:13;10.30;99.90
54898;DHT22;40800;52.704;6.398;2023-04-24T02:35:39;9.90;99.90
54898;DHT22;40800;52.704;6.398;2023-04-24T02:38:05;10.70;99.90
54898;DHT22;40800;52.704;6.398;2023-04-24T02:40:30;10.00;99.90
54898;DHT22;40800;52.704;6.398;2023-04-24T02:42:56;10.40;99.90
54898;DHT22;40800;52.704;6.398;2023-04-24T02:45:21;10.40;99.90
54898;DHT22;40800;52.704;6.398;2023-04-24T02:47:47;10.50;99.90
54898;DHT22;40800;52.704;6.398;2023-04-24T02:50:12;9.80;99.90
54898;DHT22;40800;52.704;6.398;2023-04-24T02:52:39;9.80;99.90
54898;DHT22;40800;52.704;6.398;2023-04-24T02:55:05;10.10;99.90
54898;DHT22;40800;52.704;6.398;2023-04-24T02:57:31;10.20;99.90
54898;DHT22;40800;52.704;6.398;2023-04-24T02:59:56;10.00;99.90
54898;DHT22;40800;52.704;6.398;2023-04-24T03:02:22;10.60;99.90
54898;DHT22;40800;52.704;6.398;2023-04-24T03:04:47;10.00;99.90
54898;DHT22;40800;52.704;6.398;2023-04-24T03:07:13;9.80;99.90
54898;DHT22;40800;52.704;6.398;2023-04-24T03:09:40;10.70;99.90
54898;DHT22;40800;52.704;6.398;2023-04-24T03:12:06;10.30;99.90
54898;DHT22;40800;52.704;6.398;2023-04-24T03:14:31;10.00;99.90
54898;DHT22;40800;52.704;6.398;2023-04-24T03:16:57;9.80;99.90
54898;DHT22;40800;52.704;6.398;2023-04-24T03:19:23;10.60;99.90
54898;DHT22;40800;52.704;6.398;2023-04-24T03:21:49;9.80;99.90
54898;DHT22;40800;52.704;6.398;2023-04-24T03:24:14;10.70;99.90
54898;DHT22;40800;52.704;6.398;2023-04-24T03:26:40;9.80;99.90
54898;DHT22;40800;52.704;6.398;2023-04-24T03:29:05;10.10;99.90
54898;DHT22;40800;52.704;6.398;2023-04-24T03:31:31;10.70;99.90
54898;DHT22;40800;52.704;6.398;2023-04-24T03:33:57;10.40;99.90
54898;DHT22;40800;52.704;6.398;2023-04-24T03:36:22;9.90;99.90
54898;DHT22;40800;52.704;6.398;2023-04-24T03:38:48;10.70;99.90
54898;DHT22;40800;52.704;6.398;2023-04-24T03:41:13;10.80;99.90
54898;DHT22;40800;52.704;6.398;2023-04-24T03:43:39;10.70;99.90
54898;DHT22;40800;52.704;6.398;2023-04-24T03:46:04;9.90;99.90
54898;DHT22;40800;52.704;6.398;2023-04-24T03:48:30;9.90;99.90
54898;DHT22;40800;52.704;6.398;2023-04-24T03:50:55;10.30;99.90
54898;DHT22;40800;52.704;6.398;2023-04-24T03:53:21;9.80;99.90
54898;DHT22;40800;52.704;6.398;2023-04-24T03:55:47;10.70;99.90
54898;DHT22;40800;52.704;6.398;2023-04-24T03:58:12;9.90;99.90
54898;DHT22;40800;52.704;6.398;2023-04-24T04:00:39;10.30;99.90
54898;DHT22;40800;52.704;6.398;2023-04-24T04:03:05;10.10;99.90
54898;DHT22;40800;52.704;6.398;2023-04-24T04:05:31;10.00;99.90
54898;DHT22;40800;52.704;6.398;2023-04-24T04:07:57;10.30;99.90
54898;DHT22;40800;52.704;6.398;2023-04-24T04:10:22;9.90;99.90
54898;DHT22;40800;52.704;6.398;2023-04-24T04:12:48;10.90;99.90
54898;DHT22;40800;52.704;6.398;2023-04-24T04:15:13;10.60;99.90
54898;DHT22;40800;52.704;6.398;2023-04-24T04:17:39;10.80;99.90
54898;DHT22;40800;52.704;6.398;2023-04-24T04:20:05;10.20;99.90
54898;DHT22;40800;52.704;6.398;2023-04-24T04:22:40;10.60;99.90
54898;DHT22;40800;52.704;6.398;2023-04-24T04:25:06;10.10;99.90
54898;DHT22;40800;52.704;6.398;2023-04-24T04:27:31;9.80;99.90
54898;DHT22;40800;52.704;6.398;2023-04-24T04:29:58;9.80;99.90
54898;DHT22;40800;52.704;6.398;2023-04-24T04:32:26;10.10;99.90
54898;DHT22;40800;52.704;6.398;2023-04-24T04:34:52;10.70;99.90
54898;DHT22;40800;52.704;6.398;2023-04-24T04:37:18;10.00;99.90
54898;DHT22;40800;52.704;6.398;2023-04-24T04:39:44;10.60;99.90
54898;DHT22;40800;52.704;6.398;2023-04-24T04:42:09;10.20;99.90
54898;DHT22;40800;52.704;6.398;2023-04-24T04:44:35;10.60;99.90
54898;DHT22;40800;52.704;6.398;2023-04-24T04:47:02;10.70;99.90
54898;DHT22;40800;52.704;6.398;2023-04-24T04:49:31;9.80;99.90
54898;DHT22;40800;52.704;6.398;2023-04-24T04:51:56;10.60;99.90
54898;DHT22;40800;52.704;6.398;2023-04-24T04:54:22;9.80;99.90
54898;DHT22;40800;52.704;6.398;2023-04-24T04:56:50;10.60;99.90
54898;DHT22;40800;52.704;6.398;2023-04-24T04:59:15;10.30;99.90
54898;DHT22;40800;52.704;6.398;2023-04-24T05:01:41;9.70;99.90
54898;DHT22;40800;52.704;6.398;2023-04-24T05:04:07;10.30;99.90
54898;DHT22;40800;52.704;6.398;2023-04-24T05:06:32;10.20;99.90
54898;DHT22;40800;52.704;6.398;2023-04-24T05:08:58;10.00;99.90
54898;DHT22;40800;52.704;6.398;2023-04-24T05:11:24;10.30;99.90
54898;DHT22;40800;52.704;6.398;2023-04-24T05:13:49;10.90;99.90
54898;DHT22;40800;52.704;6.398;2023-04-24T05:16:15;10.40;99.90
54898;DHT22;40800;52.704;6.398;2023-04-24T05:18:40;10.10;99.90
54898;DHT22;40800;52.704;6.398;2023-04-24T05:21:06;11.00;99.90
54898;DHT22;40800;52.704;6.398;2023-04-24T05:23:31;11.30;99.90
54898;DHT22;40800;52.704;6.398;2023-04-24T05:25:57;10.80;99.90
54898;DHT22;40800;52.704;6.398;2023-04-24T05:28:22;10.90;99.90
54898;DHT22;40800;52.704;6.398;2023-04-24T05:30:48;10.20;99.90
54898;DHT22;40800;52.704;6.398;2023-04-24T05:33:14;10.30;99.90
54898;DHT22;40800;52.704;6.398;2023-04-24T05:35:40;10.40;99.90
54898;DHT22;40800;52.704;6.398;2023-04-24T05:38:11;11.50;99.90
54898;DHT22;40800;52.704;6.398;2023-04-24T05:40:36;11.30;99.90
54898;DHT22;40800;52.704;6.398;2023-04-24T05:43:02;10.40;99.90
54898;DHT22;40800;52.704;6.398;2023-04-24T05:45:27;10.50;99.90
54898;DHT22;40800;52.704;6.398;2023-04-24T05:47:53;10.60;99.90
54898;DHT22;40800;52.704;6.398;2023-04-24T05:50:19;10.50;99.90
54898;DHT22;40800;52.704;6.398;2023-04-24T05:52:44;11.30;99.90
54898;DHT22;40800;52.704;6.398;2023-04-24T05:55:10;11.70;99.90
54898;DHT22;40800;52.704;6.398;2023-04-24T05:57:37;11.80;99.90
54898;DHT22;40800;52.704;6.398;2023-04-24T06:00:03;11.90;99.90
54898;DHT22;40800;52.704;6.398;2023-04-24T06:02:30;10.60;99.90
54898;DHT22;40800;52.704;6.398;2023-04-24T06:04:58;11.80;99.90
54898;DHT22;40800;52.704;6.398;2023-04-24T06:07:25;11.70;99.90
54898;DHT22;40800;52.704;6.398;2023-04-24T06:09:51;11.90;99.90
54898;DHT22;40800;52.704;6.398;2023-04-24T06:12:17;11.90;99.90
54898;DHT22;40800;52.704;6.398;2023-04-24T06:14:43;12.00;99.90
54898;DHT22;40800;52.704;6.398;2023-04-24T06:17:08;10.60;99.90
54898;DHT22;40800;52.704;6.398;2023-04-24T06:19:34;12.00;99.90
54898;DHT22;40800;52.704;6.398;2023-04-24T06:22:00;11.70;99.90
54898;DHT22;40800;52.704;6.398;2023-04-24T06:24:28;10.70;99.90
54898;DHT22;40800;52.704;6.398;2023-04-24T06:26:54;11.40;99.90
54898;DHT22;40800;52.704;6.398;2023-04-24T06:29:19;10.80;99.90
54898;DHT22;40800;52.704;6.398;2023-04-24T06:31:45;10.50;99.90
54898;DHT22;40800;52.704;6.398;2023-04-24T06:34:10;11.80;99.90
54898;DHT22;40800;52.704;6.398;2023-04-24T06:36:36;11.80;99.90
54898;DHT22;40800;52.704;6.398;2023-04-24T06:39:02;11.90;99.90
54898;DHT22;40800;52.704;6.398;2023-04-24T06:41:28;10.50;99.90
54898;DHT22;40800;52.704;6.398;2023-04-24T06:43:54;11.20;99.90
54898;DHT22;40800;52.704;6.398;2023-04-24T06:46:20;10.70;99.90
54898;DHT22;40800;52.704;6.398;2023-04-24T06:48:49;10.90;99.90
54898;DHT22;40800;52.704;6.398;2023-04-24T06:51:15;11.00;99.90
54898;DHT22;40800;52.704;6.398;2023-04-24T06:53:40;11.10;99.90
54898;DHT22;40800;52.704;6.398;2023-04-24T06:56:06;10.30;99.90
54898;DHT22;40800;52.704;6.398;2023-04-24T06:58:32;11.80;99.90
54898;DHT22;40800;52.704;6.398;2023-04-24T07:00:57;11.10;99.90
54898;DHT22;40800;52.704;6.398;2023-04-24T07:03:23;10.70;99.90
54898;DHT22;40800;52.704;6.398;2023-04-24T07:05:48;11.10;99.90
54898;DHT22;40800;52.704;6.398;2023-04-24T07:08:14;10.50;99.90
54898;DHT22;40800;52.704;6.398;2023-04-24T07:10:43;10.70;99.90
54898;DHT22;40800;52.704;6.398;2023-04-24T07:13:09;11.50;99.90
54898;DHT22;40800;52.704;6.398;2023-04-24T07:15:34;11.70;99.90
54898;DHT22;40800;52.704;6.398;2023-04-24T07:18:00;11.70;99.90
54898;DHT22;40800;52.704;6.398;2023-04-24T07:20:26;10.90;99.90
54898;DHT22;40800;52.704;6.398;2023-04-24T07:22:51;11.50;99.90
54898;DHT22;40800;52.704;6.398;2023-04-24T07:25:19;11.10;99.90
54898;DHT22;40800;52.704;6.398;2023-04-24T07:27:45;11.40;99.90
54898;DHT22;40800;52.704;6.398;2023-04-24T07:30:11;10.30;99.90
54898;DHT22;40800;52.704;6.398;2023-04-24T07:32:36;10.20;99.90
54898;DHT22;40800;52.704;6.398;2023-04-24T07:35:02;11.50;99.90
54898;DHT22;40800;52.704;6.398;2023-04-24T07:37:28;11.00;99.90
54898;DHT22;40800;52.704;6.398;2023-04-24T07:39:54;10.40;99.90
54898;DHT22;40800;52.704;6.398;2023-04-24T07:42:20;10.50;99.90
54898;DHT22;40800;52.704;6.398;2023-04-24T07:44:46;10.40;99.90
54898;DHT22;40800;52.704;6.398;2023-04-24T07:47:13;10.20;99.90
54898;DHT22;40800;52.704;6.398;2023-04-24T07:49:41;10.90;99.90
54898;DHT22;40800;52.704;6.398;2023-04-24T07:52:07;11.70;99.90
54898;DHT22;40800;52.704;6.398;2023-04-24T07:54:33;11.50;99.90
54898;DHT22;40800;52.704;6.398;2023-04-24T07:56:58;10.30;99.90
54898;DHT22;40800;52.704;6.398;2023-04-24T07:59:25;10.50;99.90
54898;DHT22;40800;52.704;6.398;2023-04-24T08:01:51;11.10;99.90
54898;DHT22;40800;52.704;6.398;2023-04-24T08:04:16;10.00;99.90
54898;DHT22;40800;52.704;6.398;2023-04-24T08:06:43;11.60;99.90
54898;DHT22;40800;52.704;6.398;2023-04-24T08:09:09;11.60;99.90
54898;DHT22;40800;52.704;6.398;2023-04-24T08:11:35;10.80;99.90
54898;DHT22;40800;52.704;6.398;2023-04-24T08:14:00;11.50;99.90
54898;DHT22;40800;52.704;6.398;2023-04-24T08:16:26;11.40;99.90
54898;DHT22;40800;52.704;6.398;2023-04-24T08:18:52;11.50;99.90
54898;DHT22;40800;52.704;6.398;2023-04-24T08:21:18;11.20;99.90
54898;DHT22;40800;52.704;6.398;2023-04-24T08:23:44;11.40;99.90
54898;DHT22;40800;52.704;6.398;2023-04-24T08:26:11;9.80;99.90
54898;DHT22;40800;52.704;6.398;2023-04-24T08:28:36;10.60;99.90
54898;DHT22;40800;52.704;6.398;2023-04-24T08:31:02;11.40;99.90
54898;DHT22;40800;52.704;6.398;2023-04-24T08:33:28;10.20;99.90
54898;DHT22;40800;52.704;6.398;2023-04-24T08:36:03;9.90;99.90
54898;DHT22;40800;52.704;6.398;2023-04-24T08:38:29;9.50;99.90
54898;DHT22;40800;52.704;6.398;2023-04-24T08:40:57;10.50;99.90
54898;DHT22;40800;52.704;6.398;2023-04-24T08:43:23;10.80;99.90
54898;DHT22;40800;52.704;6.398;2023-04-24T08:45:50;9.70;99.90
54898;DHT22;40800;52.704;6.398;2023-04-24T08:48:16;11.00;99.90
54898;DHT22;40800;52.704;6.398;2023-04-24T08:50:42;10.10;99.90
54898;DHT22;40800;52.704;6.398;2023-04-24T08:53:10;9.60;99.90
54898;DHT22;40800;52.704;6.398;2023-04-24T08:55:36;11.00;99.90
54898;DHT22;40800;52.704;6.398;2023-04-24T08:58:02;10.70;99.90
54898;DHT22;40800;52.704;6.398;2023-04-24T09:00:28;10.30;99.90
54898;DHT22;40800;52.704;6.398;2023-04-24T09:02:55;9.90;99.90
54898;DHT22;40800;52.704;6.398;2023-04-24T09:05:22;10.70;99.90
54898;DHT22;40800;52.704;6.398;2023-04-24T09:07:54;9.10;99.90
54898;DHT22;40800;52.704;6.398;2023-04-24T09:10:22;9.80;99.90
54898;DHT22;40800;52.704;6.398;2023-04-24T09:12:48;9.40;99.90
54898;DHT22;40800;52.704;6.398;2023-04-24T09:15:15;9.30;99.90
54898;DHT22;40800;52.704;6.398;2023-04-24T09:17:40;10.40;99.90
54898;DHT22;40800;52.704;6.398;2023-04-24T09:20:06;9.30;99.90
54898;DHT22;40800;52.704;6.398;2023-04-24T09:22:32;10.30;99.90
54898;DHT22;40800;52.704;6.398;2023-04-24T09:25:06;9.40;99.90
54898;DHT22;40800;52.704;6.398;2023-04-24T09:27:33;10.50;99.90
54898;DHT22;40800;52.704;6.398;2023-04-24T09:29:59;9.10;99.90
54898;DHT22;40800;52.704;6.398;2023-04-24T09:32:26;10.80;99.90
54898;DHT22;40800;52.704;6.398;2023-04-24T09:35:13;10.60;99.90
54898;DHT22;40800;52.704;6.398;2023-04-24T09:37:41;10.70;99.90
54898;DHT22;40800;52.704;6.398;2023-04-24T09:40:16;10.60;99.90
54898;DHT22;40800;52.704;6.398;2023-04-24T09:42:52;10.70;99.90
54898;DHT22;40800;52.704;6.398;2023-04-24T09:45:18;9.50;99.90
54898;DHT22;40800;52.704;6.398;2023-04-24T09:47:44;9.80;99.90
54898;DHT22;40800;52.704;6.398;2023-04-24T09:50:15;10.60;99.90
54898;DHT22;40800;52.704;6.398;2023-04-24T09:52:46;10.40;99.90
54898;DHT22;40800;52.704;6.398;2023-04-24T09:55:21;10.40;99.90
54898;DHT22;40800;52.704;6.398;2023-04-24T09:57:58;11.00;99.90
54898;DHT22;40800;52.704;6.398;2023-04-24T10:00:30;10.20;99.90
54898;DHT22;40800;52.704;6.398;2023-04-24T10:05:33;10.90;99.90
54898;DHT22;40800;52.704;6.398;2023-04-24T10:08:07;9.80;99.90
54898;DHT22;40800;52.704;6.398;2023-04-24T10:10:43;10.60;99.90
54898;DHT22;40800;52.704;6.398;2023-04-24T10:13:10;10.50;99.90
54898;DHT22;40800;52.704;6.398;2023-04-24T10:15:40;10.10;99.90
54898;DHT22;40800;52.704;6.398;2023-04-24T10:18:07;9.70;99.90
54898;DHT22;40800;52.704;6.398;2023-04-24T10:20:35;9.70;99.90
54898;DHT22;40800;52.704;6.398;2023-04-24T10:23:01;9.70;99.90
54898;DHT22;40800;52.704;6.398;2023-04-24T10:25:32;9.30;99.90
54898;DHT22;40800;52.704;6.398;2023-04-24T10:27:59;9.00;99.90
54898;DHT22;40800;52.704;6.398;2023-04-24T10:30:29;8.90;99.90
54898;DHT22;40800;52.704;6.398;2023-04-24T10:32:55;9.30;99.90
54898;DHT22;40800;52.704;6.398;2023-04-24T10:35:22;9.60;99.90
54898;DHT22;40800;52.704;6.398;2023-04-24T10:37:56;9.10;99.90
54898;DHT22;40800;52.704;6.398;2023-04-24T10:40:29;9.10;99.90
54898;DHT22;40800;52.704;6.398;2023-04-24T10:42:56;9.20;99.90
54898;DHT22;40800;52.704;6.398;2023-04-24T10:45:23;9.70;99.90
54898;DHT22;40800;52.704;6.398;2023-04-24T10:47:52;9.40;99.90
54898;DHT22;40800;52.704;6.398;2023-04-24T10:50:18;9.90;99.90
54898;DHT22;40800;52.704;6.398;2023-04-24T10:52:48;9.60;99.90
54898;DHT22;40800;52.704;6.398;2023-04-24T10:55:16;9.70;99.90
54898;DHT22;40800;52.704;6.398;2023-04-24T10:58:04;10.20;99.90
54898;DHT22;40800;52.704;6.398;2023-04-24T11:00:30;9.90;99.90
54898;DHT22;40800;52.704;6.398;2023-04-24T11:02:56;10.10;99.90
54898;DHT22;40800;52.704;6.398;2023-04-24T11:05:49;10.40;99.90
54898;DHT22;40800;52.704;6.398;2023-04-24T11:08:31;10.10;99.90
54898;DHT22;40800;52.704;6.398;2023-04-24T11:19:02;10.50;99.90
54898;DHT22;40800;52.704;6.398;2023-04-24T11:22:01;10.40;99.90
54898;DHT22;40800;52.704;6.398;2023-04-24T11:24:39;10.40;99.90
54898;DHT22;40800;52.704;6.398;2023-04-24T11:35:02;10.30;99.90
54898;DHT22;40800;52.704;6.398;2023-04-24T11:37:36;10.30;99.90
54898;DHT22;40800;52.704;6.398;2023-04-24T11:40:04;10.40;99.90
54898;DHT22;40800;52.704;6.398;2023-04-24T11:42:33;10.50;99.90
54898;DHT22;40800;52.704;6.398;2023-04-24T11:44:59;10.50;99.90
54898;DHT22;40800;52.704;6.398;2023-04-24T11:47:32;10.50;99.90
54898;DHT22;40800;52.704;6.398;2023-04-24T11:49:59;10.60;99.90
54898;DHT22;40800;52.704;6.398;2023-04-24T11:52:26;10.50;99.90
54898;DHT22;40800;52.704;6.398;2023-04-24T11:54:52;10.40;99.90
54898;DHT22;40800;52.704;6.398;2023-04-24T11:57:22;10.30;99.90
54898;DHT22;40800;52.704;6.398;2023-04-24T11:59:48;10.30;99.90
54898;DHT22;40800;52.704;6.398;2023-04-24T12:02:23;10.20;99.90
54898;DHT22;40800;52.704;6.398;2023-04-24T12:04:50;10.20;99.90
54898;DHT22;40800;52.704;6.398;2023-04-24T12:07:16;10.40;99.90
54898;DHT22;40800;52.704;6.398;2023-04-24T12:09:46;10.40;99.90
54898;DHT22;40800;52.704;6.398;2023-04-24T12:12:13;10.40;99.90
54898;DHT22;40800;52.704;6.398;2023-04-24T12:14:47;10.30;99.90
54898;DHT22;40800;52.704;6.398;2023-04-24T12:17:13;10.30;99.90
54898;DHT22;40800;52.704;6.398;2023-04-24T12:19:47;10.30;99.90
54898;DHT22;40800;52.704;6.398;2023-04-24T12:22:14;10.50;99.90
54898;DHT22;40800;52.704;6.398;2023-04-24T12:25:03;10.60;99.90
54898;DHT22;40800;52.704;6.398;2023-04-24T12:27:32;10.70;99.90
54898;DHT22;40800;52.704;6.398;2023-04-24T12:30:00;10.70;99.90
54898;DHT22;40800;52.704;6.398;2023-04-24T12:32:26;10.60;99.90
54898;DHT22;40800;52.704;6.398;2023-04-24T12:34:53;10.10;99.90
54898;DHT22;40800;52.704;6.398;2023-04-24T12:37:19;9.60;99.90
54898;DHT22;40800;52.704;6.398;2023-04-24T12:40:05;9.50;99.90
54898;DHT22;40800;52.704;6.398;2023-04-24T12:42:32;9.40;99.90
54898;DHT22;40800;52.704;6.398;2023-04-24T12:45:06;9.60;99.90
54898;DHT22;40800;52.704;6.398;2023-04-24T12:47:33;9.60;99.90
54898;DHT22;40800;52.704;6.398;2023-04-24T12:49:59;9.50;99.90
54898;DHT22;40800;52.704;6.398;2023-04-24T12:52:26;9.60;99.90
54898;DHT22;40800;52.704;6.398;2023-04-24T12:54:53;9.60;99.90
54898;DHT22;40800;52.704;6.398;2023-04-24T12:57:19;9.60;99.90
54898;DHT22;40800;52.704;6.398;2023-04-24T12:59:45;9.70;99.90
54898;DHT22;40800;52.704;6.398;2023-04-24T13:02:11;10.00;99.90
54898;DHT22;40800;52.704;6.398;2023-04-24T13:04:37;9.80;99.90
54898;DHT22;40800;52.704;6.398;2023-04-24T13:07:02;10.00;99.90
54898;DHT22;40800;52.704;6.398;2023-04-24T13:09:28;9.90;99.90
54898;DHT22;40800;52.704;6.398;2023-04-24T13:11:54;10.10;99.90
54898;DHT22;40800;52.704;6.398;2023-04-24T13:14:20;10.00;99.90
54898;DHT22;40800;52.704;6.398;2023-04-24T13:16:46;10.00;99.90
54898;DHT22;40800;52.704;6.398;2023-04-24T13:19:11;9.80;99.90
54898;DHT22;40800;52.704;6.398;2023-04-24T13:21:37;9.90;99.90
54898;DHT22;40800;52.704;6.398;2023-04-24T13:24:02;9.90;99.90
54898;DHT22;40800;52.704;6.398;2023-04-24T13:26:30;10.00;99.90
54898;DHT22;40800;52.704;6.398;2023-04-24T13:28:55;9.10;99.90
54898;DHT22;40800;52.704;6.398;2023-04-24T13:31:21;9.90;99.90
54898;DHT22;40800;52.704;6.398;2023-04-24T13:33:47;10.00;99.90
54898;DHT22;40800;52.704;6.398;2023-04-24T13:36:13;10.00;99.90
54898;DHT22;40800;52.704;6.398;2023-04-24T13:38:39;10.00;99.90
54898;DHT22;40800;52.704;6.398;2023-04-24T13:41:04;10.00;99.90
54898;DHT22;40800;52.704;6.398;2023-04-24T13:43:30;10.00;99.90
54898;DHT22;40800;52.704;6.398;2023-04-24T13:45:55;10.10;99.90
54898;DHT22;40800;52.704;6.398;2023-04-24T13:48:21;10.20;99.90
54898;DHT22;40800;52.704;6.398;2023-04-24T13:50:46;10.20;99.90
54898;DHT22;40800;52.704;6.398;2023-04-24T13:53:13;10.20;99.90
54898;DHT22;40800;52.704;6.398;2023-04-24T13:55:39;10.10;99.90
54898;DHT22;40800;52.704;6.398;2023-04-24T13:58:05;10.00;99.90
54898;DHT22;40800;52.704;6.398;2023-04-24T14:00:31;9.90;99.90
54898;DHT22;40800;52.704;6.398;2023-04-24T14:02:57;9.70;99.90
54898;DHT22;40800;52.704;6.398;2023-04-24T14:05:22;9.80;99.90
54898;DHT22;40800;52.704;6.398;2023-04-24T14:07:48;9.70;99.90
54898;DHT22;40800;52.704;6.398;2023-04-24T14:10:14;9.50;99.90
54898;DHT22;40800;52.704;6.398;2023-04-24T14:12:40;9.60;99.90
54898;DHT22;40800;52.704;6.398;2023-04-24T14:15:06;9.60;99.90
54898;DHT22;40800;52.704;6.398;2023-04-24T14:17:31;9.60;99.90
54898;DHT22;40800;52.704;6.398;2023-04-24T14:19:57;9.70;99.90
54898;DHT22;40800;52.704;6.398;2023-04-24T14:22:25;9.70;99.90
54898;DHT22;40800;52.704;6.398;2023-04-24T14:24:50;9.70;99.90
54898;DHT22;40800;52.704;6.398;2023-04-24T14:27:16;9.80;99.90
54898;DHT22;40800;52.704;6.398;2023-04-24T14:29:41;9.80;99.90
54898;DHT22;40800;52.704;6.398;2023-04-24T14:32:07;9.80;99.90
54898;DHT22;40800;52.704;6.398;2023-04-24T14:34:34;9.80;99.90
54898;DHT22;40800;52.704;6.398;2023-04-24T14:37:00;9.70;99.90
54898;DHT22;40800;52.704;6.398;2023-04-24T14:39:26;9.70;99.90
54898;DHT22;40800;52.704;6.398;2023-04-24T14:41:51;9.80;99.90
54898;DHT22;40800;52.704;6.398;2023-04-24T14:44:17;9.90;99.90
54898;DHT22;40800;52.704;6.398;2023-04-24T14:46:42;9.90;99.90
54898;DHT22;40800;52.704;6.398;2023-04-24T14:49:08;9.90;99.90
54898;DHT22;40800;52.704;6.398;2023-04-24T14:51:35;10.20;99.90
54898;DHT22;40800;52.704;6.398;2023-04-24T14:54:01;9.90;99.90
54898;DHT22;40800;52.704;6.398;2023-04-24T14:56:27;9.90;99.90
54898;DHT22;40800;52.704;6.398;2023-04-24T14:58:52;9.90;99.90
54898;DHT22;40800;52.704;6.398;2023-04-24T15:01:18;9.90;99.90
54898;DHT22;40800;52.704;6.398;2023-04-24T15:03:44;9.90;99.90
54898;DHT22;40800;52.704;6.398;2023-04-24T15:06:09;9.90;99.90
54898;DHT22;40800;52.704;6.398;2023-04-24T15:08:35;10.00;99.90
54898;DHT22;40800;52.704;6.398;2023-04-24T15:11:01;10.10;99.90
54898;DHT22;40800;52.704;6.398;2023-04-24T15:13:26;10.30;99.90
54898;DHT22;40800;52.704;6.398;2023-04-24T15:15:52;10.30;99.90
54898;DHT22;40800;52.704;6.398;2023-04-24T15:18:17;10.30;99.90
54898;DHT22;40800;52.704;6.398;2023-04-24T15:20:43;10.20;99.90
54898;DHT22;40800;52.704;6.398;2023-04-24T15:23:09;10.20;99.90
54898;DHT22;40800;52.704;6.398;2023-04-24T15:25:35;10.00;99.90
54898;DHT22;40800;52.704;6.398;2023-04-24T15:28:00;10.00;99.90
54898;DHT22;40800;52.704;6.398;2023-04-24T15:30:27;10.00;99.90
54898;DHT22;40800;52.704;6.398;2023-04-24T15:32:52;10.10;99.90
54898;DHT22;40800;52.704;6.398;2023-04-24T15:35:18;10.10;99.90
54898;DHT22;40800;52.704;6.398;2023-04-24T15:37:44;10.10;99.90
54898;DHT22;40800;52.704;6.398;2023-04-24T15:40:10;10.20;99.90
54898;DHT22;40800;52.704;6.398;2023-04-24T15:42:39;10.10;99.90
54898;DHT22;40800;52.704;6.398;2023-04-24T15:45:05;10.30;99.90
54898;DHT22;40800;52.704;6.398;2023-04-24T15:47:32;10.30;99.90
54898;DHT22;40800;52.704;6.398;2023-04-24T15:49:57;10.20;99.90
54898;DHT22;40800;52.704;6.398;2023-04-24T15:52:23;10.30;99.90